createdAt,value
2023-07-24T00:00:20.575Z,42.39
2023-07-24T00:01:20.632Z,42.39
2023-07-24T00:02:20.704Z,42.35
2023-07-24T00:03:20.687Z,42.35
2023-07-24T00:04:20.673Z,42.35
2023-07-24T00:05:20.705Z,42.37
2023-07-24T00:06:20.723Z,42.35
2023-07-24T00:07:20.742Z,42.34
2023-07-24T00:08:20.812Z,42.35
2023-07-24T00:09:20.798Z,42.38
2023-07-24T00:10:20.816Z,42.39
2023-07-24T00:11:20.846Z,42.37
2023-07-24T00:12:20.860Z,42.39
2023-07-24T00:13:20.889Z,42.39
2023-07-24T00:14:20.913Z,42.39
2023-07-24T00:15:20.930Z,42.39
2023-07-24T00:16:20.939Z,42.38
2023-07-24T00:17:21.133Z,42.35
2023-07-24T00:18:20.978Z,42.38
2023-07-24T00:19:21.032Z,42.38
2023-07-24T00:20:21.013Z,42.38
2023-07-24T00:21:21.038Z,42.38
2023-07-24T00:22:21.088Z,42.36
2023-07-24T00:23:21.081Z,42.41
2023-07-24T00:24:21.134Z,42.39
2023-07-24T00:25:21.110Z,42.38
2023-07-24T00:26:21.147Z,42.38
2023-07-24T00:27:21.274Z,42.40
2023-07-24T00:28:21.170Z,42.38
2023-07-24T00:29:21.216Z,42.39
2023-07-24T00:30:21.192Z,42.38
2023-07-24T00:31:21.265Z,42.39
2023-07-24T00:32:21.250Z,42.38
2023-07-24T00:33:21.265Z,42.37
2023-07-24T00:34:21.271Z,42.39
2023-07-24T00:35:21.298Z,42.40
2023-07-24T00:36:21.355Z,42.38
2023-07-24T00:37:21.344Z,42.39
2023-07-24T00:38:21.370Z,42.39
2023-07-24T00:39:21.375Z,42.38
2023-07-24T00:40:21.396Z,42.41
2023-07-24T00:41:21.426Z,42.39
2023-07-24T00:42:21.428Z,42.40
2023-07-24T00:43:21.445Z,42.40
2023-07-24T00:44:21.468Z,42.39
2023-07-24T00:45:21.478Z,42.39
2023-07-24T00:46:21.525Z,42.39
2023-07-24T00:47:21.545Z,42.42
2023-07-24T00:48:21.553Z,42.39
2023-07-24T00:49:21.595Z,42.41
2023-07-24T00:50:21.609Z,42.39
2023-07-24T00:51:21.627Z,42.39
2023-07-24T00:52:21.636Z,42.38
2023-07-24T00:53:21.675Z,42.38
2023-07-24T00:54:21.693Z,42.38
2023-07-24T00:55:21.731Z,42.41
2023-07-24T00:56:21.736Z,42.40
2023-07-24T00:57:21.772Z,42.41
2023-07-24T00:58:21.814Z,42.39
2023-07-24T00:59:21.841Z,42.41
2023-07-24T01:00:21.853Z,42.41
2023-07-24T01:01:21.882Z,42.39
2023-07-24T01:02:21.964Z,42.42
2023-07-24T01:03:21.952Z,42.42
2023-07-24T01:04:21.959Z,42.40
2023-07-24T01:05:21.984Z,42.40
2023-07-24T01:07:41.511Z,42.52
2023-07-24T01:08:41.503Z,42.45
2023-07-24T01:09:41.257Z,42.45
2023-07-24T01:10:41.187Z,42.42
2023-07-24T01:11:41.213Z,42.43
2023-07-24T01:12:41.246Z,42.44
2023-07-24T01:13:41.284Z,42.45
2023-07-24T01:14:41.285Z,42.41
2023-07-24T01:15:41.316Z,42.41
2023-07-24T01:16:41.377Z,42.42
2023-07-24T01:17:41.406Z,42.41
2023-07-24T01:18:41.418Z,42.41
2023-07-24T01:19:41.402Z,42.41
2023-07-24T01:20:41.436Z,42.42
2023-07-24T01:21:41.474Z,42.45
2023-07-24T01:22:41.479Z,42.45
2023-07-24T01:23:41.500Z,42.42
2023-07-24T01:24:41.559Z,42.42
2023-07-24T01:25:41.547Z,42.42
2023-07-24T01:26:41.574Z,42.41
2023-07-24T01:27:41.606Z,42.41
2023-07-24T01:28:41.659Z,42.43
2023-07-24T01:29:41.654Z,42.42
2023-07-24T01:30:41.716Z,42.41
2023-07-24T01:31:41.730Z,42.42
2023-07-24T01:32:41.781Z,42.40
2023-07-24T01:33:41.772Z,42.43
2023-07-24T01:34:41.791Z,42.43
2023-07-24T01:35:41.821Z,42.41
2023-07-24T01:36:41.855Z,42.44
2023-07-24T01:37:41.897Z,42.46
2023-07-24T01:38:41.923Z,42.41
2023-07-24T01:39:41.948Z,42.43
2023-07-24T01:40:41.979Z,42.41
2023-07-24T01:41:42.010Z,42.43
2023-07-24T01:42:42.061Z,42.44
2023-07-24T01:43:42.074Z,42.44
2023-07-24T01:44:42.086Z,42.41
2023-07-24T01:45:42.151Z,42.45
2023-07-24T01:46:42.268Z,42.42
2023-07-24T01:47:42.300Z,42.42
2023-07-24T01:48:42.198Z,42.41
2023-07-24T01:49:42.228Z,42.44
2023-07-24T01:50:42.232Z,42.43
2023-07-24T01:51:42.262Z,42.42
2023-07-24T01:52:42.280Z,42.43
2023-07-24T01:53:42.307Z,42.42
2023-07-24T01:54:42.327Z,42.42
2023-07-24T01:55:42.365Z,42.42
2023-07-24T01:56:42.373Z,42.44
2023-07-24T01:57:42.396Z,42.43
2023-07-24T01:58:42.432Z,42.44
2023-07-24T01:59:42.450Z,42.43
2023-07-24T02:00:42.505Z,42.43
2023-07-24T02:01:42.578Z,42.43
2023-07-24T02:02:42.622Z,42.43
2023-07-24T02:03:42.590Z,42.44
2023-07-24T02:04:42.603Z,42.43
2023-07-24T02:05:42.629Z,42.42
2023-07-24T02:06:42.650Z,42.43
2023-07-24T02:07:42.671Z,42.45
2023-07-24T02:08:42.708Z,42.43
2023-07-24T02:09:42.735Z,42.43
2023-07-24T02:10:42.740Z,42.44
2023-07-24T02:11:42.773Z,42.43
2023-07-24T02:12:42.796Z,42.44
2023-07-24T02:13:42.829Z,42.44
2023-07-24T02:14:42.845Z,42.41
2023-07-24T02:15:42.864Z,42.41
2023-07-24T02:16:42.987Z,42.44
2023-07-24T02:17:42.926Z,42.45
2023-07-24T02:18:42.932Z,42.43
2023-07-24T02:19:42.971Z,42.44
2023-07-24T02:20:42.991Z,42.43
2023-07-24T02:21:43.009Z,42.45
2023-07-24T02:22:43.041Z,42.44
2023-07-24T02:23:43.057Z,42.43
2023-07-24T02:24:43.100Z,42.43
2023-07-24T02:25:43.114Z,42.43
2023-07-24T02:26:43.128Z,42.45
2023-07-24T02:27:43.150Z,42.44
2023-07-24T02:28:43.167Z,42.43
2023-07-24T02:29:43.205Z,42.46
2023-07-24T02:30:43.207Z,42.46
2023-07-24T02:31:43.250Z,42.43
2023-07-24T02:32:43.327Z,42.45
2023-07-24T02:33:43.296Z,42.43
2023-07-24T02:34:43.308Z,42.44
2023-07-24T02:35:43.332Z,42.45
2023-07-24T02:36:43.355Z,42.47
2023-07-24T02:37:43.377Z,42.45
2023-07-24T02:38:43.390Z,42.47
2023-07-24T02:39:43.419Z,42.46
2023-07-24T02:40:43.475Z,42.44
2023-07-24T02:41:43.482Z,42.48
2023-07-24T02:42:43.506Z,42.45
2023-07-24T02:43:43.533Z,42.46
2023-07-24T02:44:43.556Z,42.48
2023-07-24T02:45:43.578Z,42.45
2023-07-24T02:46:43.603Z,42.45
2023-07-24T02:47:43.718Z,42.45
2023-07-24T02:48:43.670Z,42.45
2023-07-24T02:49:43.733Z,42.46
2023-07-24T02:50:43.715Z,42.47
2023-07-24T02:51:43.754Z,42.44
2023-07-24T02:52:43.777Z,42.44
2023-07-24T02:53:43.827Z,42.46
2023-07-24T02:54:43.867Z,42.47
2023-07-24T02:55:43.867Z,42.44
2023-07-24T02:56:43.895Z,42.45
2023-07-24T02:57:43.929Z,42.44
2023-07-24T02:58:43.970Z,42.46
2023-07-24T02:59:43.985Z,42.45
2023-07-24T03:00:44.007Z,42.44
2023-07-24T03:01:44.036Z,42.47
2023-07-24T03:02:44.189Z,42.43
2023-07-24T03:03:44.112Z,42.44
2023-07-24T03:04:44.122Z,42.46
2023-07-24T03:05:44.164Z,42.44
2023-07-24T03:06:44.181Z,42.45
2023-07-24T03:07:44.208Z,42.46
2023-07-24T03:08:44.264Z,42.44
2023-07-24T03:09:44.301Z,42.43
2023-07-24T03:10:44.303Z,42.46
2023-07-24T03:11:44.353Z,42.45
2023-07-24T03:12:44.370Z,42.47
2023-07-24T03:13:44.427Z,42.47
2023-07-24T03:14:44.454Z,42.46
2023-07-24T03:15:44.557Z,42.46
2023-07-24T03:16:44.515Z,42.45
2023-07-24T03:17:44.569Z,42.46
2023-07-24T03:18:44.570Z,42.46
2023-07-24T03:19:44.599Z,42.45
2023-07-24T03:20:44.645Z,42.45
2023-07-24T03:21:44.665Z,42.45
2023-07-24T03:22:44.700Z,42.46
2023-07-24T03:23:44.729Z,42.47
2023-07-24T03:24:44.788Z,42.46
2023-07-24T03:25:44.797Z,42.45
2023-07-24T03:26:44.842Z,42.46
2023-07-24T03:27:44.869Z,42.43
2023-07-24T03:28:44.894Z,42.45
2023-07-24T03:29:44.929Z,42.46
2023-07-24T03:30:45.034Z,42.45
2023-07-24T03:31:45.030Z,42.45
2023-07-24T03:32:45.052Z,42.46
2023-07-24T03:33:45.084Z,42.46
2023-07-24T03:34:45.084Z,42.45
2023-07-24T03:35:45.120Z,42.45
2023-07-24T03:36:45.149Z,42.44
2023-07-24T03:37:45.210Z,42.45
2023-07-24T03:38:45.227Z,42.41
2023-07-24T03:39:45.269Z,42.43
2023-07-24T03:40:45.285Z,42.45
2023-07-24T03:41:45.310Z,42.45
2023-07-24T03:42:45.338Z,42.45
2023-07-24T03:43:45.367Z,42.43
2023-07-24T03:44:45.399Z,42.44
2023-07-24T03:45:45.433Z,42.45
2023-07-24T03:46:45.478Z,42.44
2023-07-24T03:47:45.535Z,42.43
2023-07-24T03:48:45.555Z,42.45
2023-07-24T03:49:45.561Z,42.40
2023-07-24T03:50:45.597Z,42.43
2023-07-24T03:51:45.626Z,42.45
2023-07-24T03:52:45.671Z,42.43
2023-07-24T03:53:45.705Z,42.44
2023-07-24T03:54:45.746Z,42.43
2023-07-24T03:55:45.827Z,42.43
2023-07-24T03:56:45.806Z,42.43
2023-07-24T03:57:45.836Z,42.43
2023-07-24T03:58:45.878Z,42.42
2023-07-24T03:59:45.914Z,42.41
2023-07-24T04:00:45.965Z,42.41
2023-07-24T04:01:45.977Z,42.45
2023-07-24T04:02:46.040Z,42.40
2023-07-24T04:03:46.098Z,42.42
2023-07-24T04:04:46.082Z,42.41
2023-07-24T04:05:46.112Z,42.41
2023-07-24T04:06:46.138Z,42.42
2023-07-24T04:07:46.193Z,42.41
2023-07-24T04:08:46.225Z,42.38
2023-07-24T04:09:46.264Z,42.40
2023-07-24T04:10:46.281Z,42.39
2023-07-24T04:11:46.315Z,42.39
2023-07-24T04:12:46.359Z,42.37
2023-07-24T04:13:46.380Z,42.38
2023-07-24T04:14:46.444Z,42.39
2023-07-24T04:15:46.457Z,42.38
2023-07-24T04:16:46.492Z,42.39
2023-07-24T04:17:46.544Z,42.39
2023-07-24T04:18:46.549Z,42.39
2023-07-24T04:19:46.597Z,42.38
2023-07-24T04:20:46.625Z,42.36
2023-07-24T04:21:46.663Z,42.37
2023-07-24T04:22:46.674Z,42.34
2023-07-24T04:23:46.708Z,42.37
2023-07-24T04:24:46.782Z,42.36
2023-07-24T04:25:46.771Z,42.37
2023-07-24T04:26:46.811Z,42.34
2023-07-24T04:27:46.829Z,42.34
2023-07-24T04:28:46.851Z,42.35
2023-07-24T04:29:46.885Z,42.33
2023-07-24T04:30:46.936Z,42.32
2023-07-24T04:31:46.940Z,42.33
2023-07-24T04:32:47.003Z,42.32
2023-07-24T04:33:46.996Z,42.30
2023-07-24T04:34:47.028Z,42.30
2023-07-24T04:35:47.053Z,42.28
2023-07-24T04:36:47.086Z,42.27
2023-07-24T04:37:47.177Z,42.27
2023-07-24T04:38:47.159Z,42.28
2023-07-24T04:39:47.236Z,42.26
2023-07-24T04:40:47.217Z,42.25
2023-07-24T04:41:47.269Z,42.24
2023-07-24T04:42:47.285Z,42.23
2023-07-24T04:43:47.307Z,42.23
2023-07-24T04:44:47.353Z,42.24
2023-07-24T04:45:47.386Z,42.21
2023-07-24T04:46:47.458Z,42.18
2023-07-24T04:47:47.501Z,42.19
2023-07-24T04:48:47.474Z,42.20
2023-07-24T04:49:47.500Z,42.19
2023-07-24T04:50:47.537Z,42.15
2023-07-24T04:51:47.557Z,42.17
2023-07-24T04:52:47.598Z,42.13
2023-07-24T04:53:47.641Z,42.10
2023-07-24T04:54:47.670Z,42.12
2023-07-24T04:55:47.711Z,42.12
2023-07-24T04:56:47.733Z,42.11
2023-07-24T04:57:47.759Z,42.11
2023-07-24T04:58:47.819Z,42.12
2023-07-24T04:59:47.827Z,42.07
2023-07-24T05:00:47.890Z,42.08
2023-07-24T05:01:48.088Z,42.09
2023-07-24T05:02:47.963Z,42.08
2023-07-24T05:03:47.939Z,42.05
2023-07-24T05:04:48.014Z,42.10
2023-07-24T05:05:48.284Z,42.06
2023-07-24T05:06:48.121Z,42.11
2023-07-24T05:07:48.061Z,42.09
2023-07-24T05:08:48.093Z,42.08
2023-07-24T05:09:48.108Z,42.13
2023-07-24T05:10:48.169Z,42.11
2023-07-24T05:11:48.181Z,42.08
2023-07-24T05:12:48.214Z,42.10
2023-07-24T05:13:48.237Z,42.12
2023-07-24T05:14:48.271Z,42.12
2023-07-24T05:15:48.322Z,42.10
2023-07-24T05:16:48.371Z,42.10
2023-07-24T05:17:48.414Z,42.09
2023-07-24T05:18:48.389Z,42.09
2023-07-24T05:19:48.411Z,42.06
2023-07-24T05:20:48.470Z,42.09
2023-07-24T05:21:48.472Z,42.07
2023-07-24T05:22:48.509Z,42.07
2023-07-24T05:23:48.552Z,42.05
2023-07-24T05:24:48.606Z,42.07
2023-07-24T05:25:48.610Z,42.05
2023-07-24T05:26:48.636Z,42.05
2023-07-24T05:27:48.665Z,42.06
2023-07-24T05:28:48.684Z,42.05
2023-07-24T05:29:48.717Z,42.00
2023-07-24T05:30:48.748Z,42.01
2023-07-24T05:31:48.859Z,42.03
2023-07-24T05:32:48.874Z,42.02
2023-07-24T05:33:48.828Z,42.01
2023-07-24T05:34:48.853Z,42.02
2023-07-24T05:35:48.916Z,42.02
2023-07-24T05:36:48.931Z,42.01
2023-07-24T05:37:48.937Z,42.01
2023-07-24T05:38:48.987Z,42.02
2023-07-24T05:39:49.002Z,41.99
2023-07-24T05:40:49.045Z,41.98
2023-07-24T05:41:49.080Z,42.01
2023-07-24T05:42:49.088Z,41.99
2023-07-24T05:43:49.118Z,41.99
2023-07-24T05:44:49.150Z,41.99
2023-07-24T05:45:49.255Z,42.00
2023-07-24T05:46:49.214Z,42.00
2023-07-24T05:47:49.280Z,41.98
2023-07-24T05:48:49.269Z,42.01
2023-07-24T05:49:49.305Z,42.02
2023-07-24T05:50:49.349Z,42.04
2023-07-24T05:51:49.377Z,42.06
2023-07-24T05:52:49.408Z,42.06
2023-07-24T05:53:49.443Z,42.06
2023-07-24T05:54:49.476Z,42.06
2023-07-24T05:55:49.508Z,42.08
2023-07-24T05:56:49.536Z,42.05
2023-07-24T05:57:49.580Z,42.04
2023-07-24T05:58:49.599Z,42.03
2023-07-24T05:59:49.621Z,42.04
2023-07-24T06:00:49.658Z,42.02
2023-07-24T06:01:49.735Z,42.03
2023-07-24T06:02:49.774Z,41.99
2023-07-24T06:03:49.757Z,41.96
2023-07-24T06:04:49.770Z,41.94
2023-07-24T06:05:49.784Z,41.93
2023-07-24T06:06:49.802Z,41.92
2023-07-24T06:07:49.869Z,41.93
2023-07-24T06:08:49.847Z,41.93
2023-07-24T06:09:49.877Z,41.90
2023-07-24T06:10:49.921Z,41.89
2023-07-24T06:11:49.947Z,41.89
2023-07-24T06:12:49.943Z,41.87
2023-07-24T06:13:49.982Z,41.86
2023-07-24T06:14:49.992Z,41.85
2023-07-24T06:15:50.161Z,41.80
2023-07-24T06:16:50.118Z,41.79
2023-07-24T06:17:52.551Z,41.77
2023-07-24T06:18:50.039Z,41.77
2023-07-24T06:19:50.039Z,41.74
2023-07-24T06:20:50.038Z,41.74
2023-07-24T06:21:50.019Z,41.71
2023-07-24T06:22:50.009Z,41.69
2023-07-24T06:23:49.999Z,41.69
2023-07-24T06:24:50.114Z,41.66
2023-07-24T06:25:50.049Z,41.68
2023-07-24T06:26:49.980Z,41.67
2023-07-24T06:27:49.971Z,41.66
2023-07-24T06:28:49.996Z,41.65
2023-07-24T06:29:53.295Z,41.63
2023-07-24T06:30:50.955Z,41.61
2023-07-24T06:31:49.979Z,41.60
2023-07-24T06:32:49.953Z,41.60
2023-07-24T06:33:49.966Z,41.60
2023-07-24T06:34:49.951Z,41.58
2023-07-24T06:35:49.915Z,41.57
2023-07-24T06:36:49.915Z,41.59
2023-07-24T06:37:49.897Z,41.57
2023-07-24T06:38:49.886Z,41.59
2023-07-24T06:39:49.932Z,41.58
2023-07-24T06:40:49.899Z,41.55
2023-07-24T06:41:49.945Z,41.58
2023-07-24T06:42:49.861Z,41.57
2023-07-24T06:43:49.892Z,41.55
2023-07-24T06:44:49.845Z,41.62
2023-07-24T06:45:49.854Z,41.60
2023-07-24T06:46:50.148Z,41.64
2023-07-24T06:47:50.005Z,41.64
2023-07-24T06:48:49.814Z,41.67
2023-07-24T06:49:49.833Z,41.72
2023-07-24T06:50:49.919Z,41.74
2023-07-24T06:51:49.805Z,41.77
2023-07-24T06:52:49.792Z,41.80
2023-07-24T06:53:49.789Z,41.82
2023-07-24T06:54:49.809Z,41.84
2023-07-24T06:55:49.821Z,41.86
2023-07-24T06:56:49.881Z,41.89
2023-07-24T06:57:49.906Z,41.92
2023-07-24T06:58:49.912Z,41.90
2023-07-24T06:59:49.922Z,41.93
2023-07-24T07:00:49.955Z,41.93
2023-07-24T07:01:49.987Z,41.95
2023-07-24T07:02:50.035Z,41.98
2023-07-24T07:03:50.080Z,41.99
2023-07-24T07:04:50.061Z,42.00
2023-07-24T07:05:50.090Z,41.98
2023-07-24T07:06:50.327Z,42.00
2023-07-24T07:07:50.137Z,42.04
2023-07-24T07:08:50.171Z,42.02
2023-07-24T07:09:50.203Z,42.03
2023-07-24T07:10:50.231Z,42.04
2023-07-24T07:11:50.258Z,42.04
2023-07-24T07:12:50.282Z,42.06
2023-07-24T07:13:50.313Z,42.07
2023-07-24T07:14:50.343Z,42.06
2023-07-24T07:15:50.404Z,42.07
2023-07-24T07:16:50.423Z,42.09
2023-07-24T07:17:50.485Z,42.10
2023-07-24T07:18:50.475Z,42.09
2023-07-24T07:19:50.508Z,42.12
2023-07-24T07:20:50.557Z,42.10
2023-07-24T07:21:50.573Z,42.13
2023-07-24T07:22:50.591Z,42.10
2023-07-24T07:23:50.623Z,42.14
2023-07-24T07:24:50.713Z,42.15
2023-07-24T07:25:50.699Z,42.13
2023-07-24T07:26:50.736Z,42.18
2023-07-24T07:27:50.762Z,42.15
2023-07-24T07:28:50.801Z,42.16
2023-07-24T07:29:50.817Z,42.16
2023-07-24T07:30:50.858Z,42.17
2023-07-24T07:31:50.891Z,42.16
2023-07-24T07:32:50.938Z,42.18
2023-07-24T07:33:50.938Z,42.15
2023-07-24T07:34:50.963Z,42.20
2023-07-24T07:35:51.073Z,42.19
2023-07-24T07:36:51.021Z,42.17
2023-07-24T07:37:51.036Z,42.17
2023-07-24T07:38:51.071Z,42.17
2023-07-24T07:39:51.103Z,42.18
2023-07-24T07:40:51.131Z,42.16
2023-07-24T07:41:56.077Z,42.15
2023-07-24T07:42:52.156Z,42.16
2023-07-24T07:43:51.148Z,42.13
2023-07-24T07:44:51.154Z,42.13
2023-07-24T07:45:51.131Z,42.13
2023-07-24T07:46:51.136Z,42.09
2023-07-24T07:47:51.131Z,42.08
2023-07-24T07:48:51.125Z,42.06
2023-07-24T07:49:51.132Z,42.02
2023-07-24T07:50:51.100Z,41.99
2023-07-24T07:51:51.108Z,41.96
2023-07-24T07:52:51.092Z,41.92
2023-07-24T07:53:51.085Z,41.93
2023-07-24T07:54:51.076Z,41.90
2023-07-24T07:55:51.078Z,41.85
2023-07-24T07:56:51.063Z,41.81
2023-07-24T07:57:51.067Z,41.80
2023-07-24T07:58:51.041Z,41.79
2023-07-24T07:59:51.055Z,41.73
2023-07-24T08:00:51.108Z,41.71
2023-07-24T08:01:51.079Z,41.68
2023-07-24T08:02:51.110Z,41.66
2023-07-24T08:03:51.137Z,41.64
2023-07-24T08:04:51.113Z,41.62
2023-07-24T08:05:51.149Z,41.60
2023-07-24T08:06:51.168Z,41.59
2023-07-24T08:07:51.180Z,41.58
2023-07-24T08:08:51.209Z,41.55
2023-07-24T08:09:51.223Z,41.55
2023-07-24T08:10:51.224Z,41.55
2023-07-24T08:11:51.230Z,41.53
2023-07-24T08:12:51.256Z,41.49
2023-07-24T08:13:51.266Z,41.49
2023-07-24T08:14:51.293Z,41.50
2023-07-24T08:15:51.307Z,41.44
2023-07-24T08:16:51.387Z,41.42
2023-07-24T08:17:51.496Z,41.44
2023-07-24T08:18:51.346Z,41.43
2023-07-24T08:19:51.357Z,41.42
2023-07-24T08:20:51.366Z,41.44
2023-07-24T08:21:51.370Z,41.41
2023-07-24T08:22:51.393Z,41.39
2023-07-24T08:23:51.417Z,41.34
2023-07-24T08:24:51.526Z,41.33
2023-07-24T08:25:51.444Z,41.34
2023-07-24T08:26:51.444Z,41.31
2023-07-24T08:28:04.551Z,41.23
2023-07-24T08:28:52.472Z,41.22
2023-07-24T08:29:51.447Z,41.20
2023-07-24T08:30:51.550Z,41.14
2023-07-24T08:31:51.505Z,41.11
2023-07-24T08:32:51.489Z,41.09
2023-07-24T08:33:51.436Z,41.09
2023-07-24T08:34:51.413Z,41.06
2023-07-24T08:35:51.404Z,41.06
2023-07-24T08:36:51.395Z,41.07
2023-07-24T08:37:51.406Z,41.04
2023-07-24T08:38:51.401Z,41.05
2023-07-24T08:39:51.379Z,41.02
2023-07-24T08:40:51.438Z,41.03
2023-07-24T08:41:51.393Z,40.98
2023-07-24T08:42:51.419Z,41.01
2023-07-24T08:43:51.372Z,41.00
2023-07-24T08:44:51.345Z,41.01
2023-07-24T08:45:51.377Z,41.01
2023-07-24T08:46:51.339Z,41.04
2023-07-24T08:47:51.421Z,40.99
2023-07-24T08:48:51.321Z,41.00
2023-07-24T08:49:51.300Z,40.98
2023-07-24T08:50:51.288Z,41.00
2023-07-24T08:51:51.285Z,40.96
2023-07-24T08:52:51.278Z,40.95
2023-07-24T08:53:51.299Z,40.92
2023-07-24T08:54:51.289Z,40.87
2023-07-24T08:55:51.266Z,40.83
2023-07-24T08:56:51.270Z,40.81
2023-07-24T08:57:51.274Z,40.76
2023-07-24T08:58:51.257Z,40.77
2023-07-24T08:59:51.242Z,40.76
2023-07-24T09:00:51.242Z,40.74
2023-07-24T09:01:51.307Z,40.74
2023-07-24T09:02:51.269Z,40.72
2023-07-24T09:03:53.229Z,40.75
2023-07-24T09:04:51.205Z,40.76
2023-07-24T09:05:51.213Z,40.77
2023-07-24T09:06:51.199Z,40.80
2023-07-24T09:07:51.190Z,40.81
2023-07-24T09:08:51.180Z,40.84
2023-07-24T09:09:51.190Z,40.84
2023-07-24T09:10:51.219Z,40.84
2023-07-24T09:11:51.184Z,40.83
2023-07-24T09:12:51.165Z,40.82
2023-07-24T09:14:51.163Z,40.81
2023-07-24T09:15:51.160Z,40.75
2023-07-24T09:16:51.181Z,40.74
2023-07-24T09:17:51.154Z,40.74
2023-07-24T09:18:59.786Z,40.73
2023-07-24T09:19:52.114Z,40.73
2023-07-24T09:20:51.714Z,40.73
2023-07-24T09:21:51.100Z,40.66
2023-07-24T09:23:10.142Z,40.60
2023-07-24T09:23:52.105Z,40.57
2023-07-24T09:24:51.181Z,40.58
2023-07-24T09:25:51.075Z,40.60
2023-07-24T09:26:51.082Z,40.60
2023-07-24T09:27:51.072Z,40.62
2023-07-24T09:28:52.346Z,40.64
2023-07-24T09:29:51.045Z,40.66
2023-07-24T09:30:51.127Z,40.66
2023-07-24T09:31:51.048Z,40.70
2023-07-24T09:32:51.032Z,40.73
2023-07-24T09:33:51.018Z,40.74
2023-07-24T09:34:51.020Z,40.74
2023-07-24T09:35:51.009Z,40.78
2023-07-24T09:36:50.995Z,40.77
2023-07-24T09:37:50.996Z,40.82
2023-07-24T09:38:51.020Z,40.82
2023-07-24T09:39:50.989Z,40.82
2023-07-24T09:40:50.978Z,40.80
2023-07-24T09:41:50.966Z,40.77
2023-07-24T09:43:17.905Z,40.78
2023-07-24T09:43:51.968Z,40.76
2023-07-24T09:44:50.949Z,40.72
2023-07-24T09:45:50.939Z,40.69
2023-07-24T09:47:56.270Z,40.68
2023-07-24T09:49:51.912Z,40.68
2023-07-24T09:50:50.940Z,40.69
2023-07-24T09:51:50.905Z,40.68
2023-07-24T09:52:50.882Z,40.70
2023-07-24T09:53:50.877Z,40.72
2023-07-24T09:54:50.875Z,40.72
2023-07-24T09:55:50.882Z,40.70
2023-07-24T09:56:57.588Z,40.70
2023-07-24T09:57:51.857Z,40.72
2023-07-24T09:58:50.890Z,40.73
2023-07-24T09:59:50.838Z,40.73
2023-07-24T10:00:50.846Z,40.74
2023-07-24T10:01:50.927Z,40.74
2023-07-24T10:02:50.852Z,40.76
2023-07-24T10:03:50.819Z,40.77
2023-07-24T10:04:50.860Z,40.77
2023-07-24T10:05:50.795Z,40.79
2023-07-24T10:06:50.787Z,40.78
2023-07-24T10:07:50.799Z,40.80
2023-07-24T10:08:50.806Z,40.79
2023-07-24T10:09:50.797Z,40.82
2023-07-24T10:10:50.758Z,40.83
2023-07-24T10:11:50.753Z,40.83
2023-07-24T10:12:50.738Z,40.85
2023-07-24T10:13:50.733Z,40.85
2023-07-24T10:14:50.729Z,40.86
2023-07-24T10:15:50.781Z,40.88
2023-07-24T10:16:50.787Z,40.87
2023-07-24T10:17:50.826Z,40.86
2023-07-24T10:18:50.839Z,40.88
2023-07-24T10:19:50.827Z,40.87
2023-07-24T10:20:50.847Z,40.86
2023-07-24T10:21:50.861Z,40.86
2023-07-24T10:22:50.866Z,40.84
2023-07-24T10:23:50.875Z,40.82
2023-07-24T10:24:50.916Z,40.85
2023-07-24T10:25:50.900Z,40.86
2023-07-24T10:26:50.907Z,40.86
2023-07-24T10:27:50.928Z,40.85
2023-07-24T10:28:50.920Z,40.88
2023-07-24T10:29:50.905Z,40.89
2023-07-24T10:30:50.983Z,40.86
2023-07-24T10:31:51.106Z,40.90
2023-07-24T10:32:54.192Z,40.86
2023-07-24T10:33:50.982Z,40.82
2023-07-24T10:34:50.956Z,40.81
2023-07-24T10:35:50.910Z,40.79
2023-07-24T10:36:50.936Z,40.80
2023-07-24T10:37:50.905Z,40.78
2023-07-24T10:38:50.899Z,40.78
2023-07-24T10:39:50.899Z,40.76
2023-07-24T10:40:50.903Z,40.75
2023-07-24T10:41:50.885Z,40.76
2023-07-24T10:42:50.870Z,40.76
2023-07-24T10:43:50.885Z,40.74
2023-07-24T10:44:50.871Z,40.75
2023-07-24T10:45:50.898Z,40.70
2023-07-24T10:46:50.844Z,40.72
2023-07-24T10:47:50.861Z,40.70
2023-07-24T10:48:50.861Z,40.68
2023-07-24T10:49:50.831Z,40.67
2023-07-24T10:50:54.019Z,40.63
2023-07-24T10:51:50.815Z,40.60
2023-07-24T10:52:50.835Z,40.59
2023-07-24T10:53:50.821Z,40.54
2023-07-24T10:54:50.810Z,40.49
2023-07-24T10:55:50.788Z,40.47
2023-07-24T10:56:52.141Z,40.47
2023-07-24T10:57:50.794Z,40.45
2023-07-24T10:58:50.810Z,40.43
2023-07-24T10:59:50.761Z,40.43
2023-07-24T11:00:50.766Z,40.44
2023-07-24T11:01:50.815Z,40.44
2023-07-24T11:02:50.788Z,40.45
2023-07-24T11:03:50.727Z,40.50
2023-07-24T11:04:50.759Z,40.50
2023-07-24T11:05:50.734Z,40.55
2023-07-24T11:06:50.720Z,40.57
2023-07-24T11:07:50.735Z,40.61
2023-07-24T11:08:50.707Z,40.64
2023-07-24T11:09:50.760Z,40.64
2023-07-24T11:10:50.683Z,40.66
2023-07-24T11:11:50.680Z,40.69
2023-07-24T11:12:50.746Z,40.68
2023-07-24T11:13:50.816Z,40.64
2023-07-24T11:14:50.887Z,40.63
2023-07-24T11:15:50.986Z,40.61
2023-07-24T11:16:50.987Z,40.61
2023-07-24T11:17:51.150Z,40.60
2023-07-24T11:18:54.461Z,40.58
2023-07-24T11:19:51.129Z,40.62
2023-07-24T11:20:51.131Z,40.64
2023-07-24T11:21:51.106Z,40.60
2023-07-24T11:22:51.097Z,40.60
2023-07-24T11:23:51.092Z,40.62
2023-07-24T11:24:51.121Z,40.61
2023-07-24T11:25:51.073Z,40.63
2023-07-24T11:26:51.066Z,40.63
2023-07-24T11:27:51.062Z,40.63
2023-07-24T11:28:51.047Z,40.65
2023-07-24T11:29:51.067Z,40.66
2023-07-24T11:30:51.097Z,40.68
2023-07-24T11:31:51.064Z,40.70
2023-07-24T11:32:51.053Z,40.74
2023-07-24T11:33:51.046Z,40.76
2023-07-24T11:34:51.009Z,40.77
2023-07-24T11:35:51.025Z,40.77
2023-07-24T11:36:50.996Z,40.81
2023-07-24T11:37:50.999Z,40.83
2023-07-24T11:38:50.976Z,40.83
2023-07-24T11:39:50.988Z,40.86
2023-07-24T11:40:50.982Z,40.86
2023-07-24T11:41:50.969Z,40.87
2023-07-24T11:42:50.971Z,40.86
2023-07-24T11:43:51.012Z,40.86
2023-07-24T11:44:50.982Z,40.82
2023-07-24T11:45:51.036Z,40.81
2023-07-24T11:46:51.184Z,40.81
2023-07-24T11:47:51.203Z,40.76
2023-07-24T11:48:51.248Z,40.77
2023-07-24T11:49:51.272Z,40.76
2023-07-24T11:50:51.363Z,40.75
2023-07-24T11:51:51.409Z,40.73
2023-07-24T11:52:51.466Z,40.72
2023-07-24T11:53:51.516Z,40.72
2023-07-24T11:54:51.564Z,40.73
2023-07-24T11:55:51.639Z,40.70
2023-07-24T11:56:51.682Z,40.65
2023-07-24T11:57:51.737Z,40.69
2023-07-24T11:58:51.809Z,40.65
2023-07-24T11:59:51.875Z,40.63
2023-07-24T12:00:51.957Z,40.63
2023-07-24T12:01:51.986Z,40.62
2023-07-24T12:02:52.248Z,40.60
2023-07-24T12:03:52.173Z,40.56
2023-07-24T12:04:52.154Z,40.56
2023-07-24T12:05:52.243Z,40.55
2023-07-24T12:06:52.280Z,40.53
2023-07-24T12:07:52.348Z,40.51
2023-07-24T12:08:52.400Z,40.53
2023-07-24T12:09:52.474Z,40.52
2023-07-24T12:10:52.573Z,40.53
2023-07-24T12:11:52.582Z,40.51
2023-07-24T12:12:52.648Z,40.53
2023-07-24T12:13:52.724Z,40.52
2023-07-24T12:14:53.086Z,40.54
2023-07-24T12:15:52.881Z,40.55
2023-07-24T12:16:52.906Z,40.54
2023-07-24T12:17:53.015Z,40.52
2023-07-24T12:18:53.020Z,40.52
2023-07-24T12:19:53.073Z,40.51
2023-07-24T12:20:53.158Z,40.52
2023-07-24T12:21:53.215Z,40.53
2023-07-24T12:22:53.265Z,40.53
2023-07-24T12:23:53.316Z,40.57
2023-07-24T12:24:53.475Z,40.60
2023-07-24T12:25:53.435Z,40.60
2023-07-24T12:26:53.500Z,40.62
2023-07-24T12:27:53.545Z,40.61
2023-07-24T12:28:53.610Z,40.62
2023-07-24T12:29:53.674Z,40.58
2023-07-24T12:30:53.878Z,40.59
2023-07-24T12:31:53.805Z,40.56
2023-07-24T12:32:53.913Z,40.57
2023-07-24T12:33:53.914Z,40.57
2023-07-24T12:34:53.970Z,40.60
2023-07-24T12:35:54.048Z,40.58
2023-07-24T12:36:54.103Z,40.61
2023-07-24T12:37:54.174Z,40.66
2023-07-24T12:38:54.207Z,40.67
2023-07-24T12:39:54.274Z,40.70
2023-07-24T12:40:54.348Z,40.72
2023-07-24T12:41:54.400Z,40.74
2023-07-24T12:42:54.463Z,40.78
2023-07-24T12:43:54.536Z,40.80
2023-07-24T12:44:55.709Z,40.83
2023-07-24T12:45:54.628Z,40.88
2023-07-24T12:46:54.654Z,40.88
2023-07-24T12:47:54.648Z,40.93
2023-07-24T12:48:54.601Z,40.97
2023-07-24T12:49:54.564Z,40.98
2023-07-24T12:50:54.564Z,41.00
2023-07-24T12:51:54.604Z,41.00
2023-07-24T12:52:54.549Z,41.07
2023-07-24T12:54:04.446Z,41.08
2023-07-24T12:55:01.797Z,41.10
2023-07-24T12:55:55.549Z,41.13
2023-07-24T12:56:54.586Z,41.16